H.m. Hidalgo — WDB3867 — position and weather

sailwx.info

Track history (hours):
 
Tides and Currents Weather Stations Pressure Air Temp Water Temp Dewpoint Dewpoint Depression Visibility Wind Speed Wind Dir Waves Ship Positions

H.m. Hidalgo

Owner: PACIFIC TUGBOAT SERVICE INC, SAN DIEGO, CA. More information available from US FCC via Universal Licensing System and Coast Guard Vessel Documentation Center.

Last reported at 2018-Jul-13 01:27 UTC. Time now 2018-Jul-15 23:01 UTC.
Position N 33°46' W 118°13'.

Length 25 m; draft 4 m.

Type: Towing. MMSI: 366892180.

Date/timePositionNaut miles runAvg speedWind from/ knotsBaromVisibWave heightAir tempDewpointWater temp
2018-Jul-13 01:27N 33°46' W 118°13'0 0.0
2018-Jul-13 01:00N 33°46' W 118°13'1 1.4
2018-Jul-13 00:30N 33°46' W 118°13'2 3.8
2018-Jul-13 00:00N 33°44' W 118°13'3 6.3
2018-Jul-12 23:30N 33°41' W 118°15'3 6.2
2018-Jul-12 23:00N 33°40' W 118°19'4 7.4
2018-Jul-12 22:30N 33°42' W 118°23'4 6.9
2018-Jul-12 22:00N 33°44' W 118°26'3 6.7
2018-Jul-12 21:30N 33°45' W 118°30'3 6.8
2018-Jul-12 21:00N 33°47' W 118°34'4 7.4
2018-Jul-12 20:29N 33°49' W 118°38'4 7.4
2018-Jul-12 20:00N 33°50' W 118°41'3 7.1
2018-Jul-12 19:31N 33°52' W 118°45'4 7.2
2018-Jul-12 19:00N 33°54' W 118°49'3 6.9
2018-Jul-12 18:30N 33°56' W 118°52'3 6.8
2018-Jul-12 18:00N 33°58' W 118°56'3 6.7
2018-Jul-12 17:29N 33°59' W 118°59'3 6.7
2018-Jul-12 16:59N 34°01' W 119°03'3 6.7
2018-Jul-12 16:30N 34°02' W 119°06'3 6.5
2018-Jul-12 16:00N 34°04' W 119°10'3 6.4
2018-Jul-12 15:30N 34°05' W 119°13'3 6.1
2018-Jul-12 15:00N 34°08' W 119°13'1 1.7
2018-Jul-12 14:30N 34°09' W 119°13'0 0.0
2018-Jul-12 14:00N 34°09' W 119°13'0 0.0
2018-Jul-12 13:30N 34°09' W 119°13'0 0.0
2018-Jul-12 13:00N 34°09' W 119°13'0 0.0
2018-Jul-12 12:29N 34°09' W 119°13'0 0.0
2018-Jul-12 12:00N 34°09' W 119°13'0 0.0
2018-Jul-12 11:28N 34°09' W 119°13'0 0.0
2018-Jul-12 11:00N 34°09' W 119°13'0 0.0
2018-Jul-12 10:29N 34°09' W 119°13'0 0.0
2018-Jul-12 10:00N 34°09' W 119°13'0 0.0
2018-Jul-12 09:29N 34°09' W 119°13'0 0.0
2018-Jul-12 09:00N 34°09' W 119°13'0 0.0
2018-Jul-12 08:30N 34°09' W 119°13'0 0.0
2018-Jul-12 08:00N 34°09' W 119°13'0 0.0
2018-Jul-12 07:30N 34°09' W 119°13'0 0.0
2018-Jul-12 06:59N 34°09' W 119°13'0 0.0
2018-Jul-12 06:30N 34°09' W 119°13'0 0.0
2018-Jul-12 06:00N 34°09' W 119°13'0 0.0
2018-Jul-12 05:30N 34°09' W 119°13'0 0.0
2018-Jul-12 05:00N 34°09' W 119°13'0 0.0
2018-Jul-12 04:30N 34°09' W 119°13'0 0.0
2018-Jul-12 04:00N 34°09' W 119°13'0 0.0
2018-Jul-12 03:29N 34°09' W 119°13'0 0.0
2018-Jul-12 03:00N 34°09' W 119°13'0 0.0
2018-Jul-12 02:30N 34°09' W 119°13'0 0.0
2018-Jul-12 02:00N 34°09' W 119°13'0 0.0
2018-Jul-12 01:27N 34°09' W 119°13'0 0.0
2018-Jul-12 01:00N 34°09' W 119°13'0 0.0
2018-Jul-12 00:30N 34°09' W 119°13'0 0.0
2018-Jul-11 23:57N 34°09' W 119°13'0 1.0
2018-Jul-11 23:29N 34°09' W 119°13'3 5.7
2018-Jul-11 23:00N 34°06' W 119°14'3 7.0
2018-Jul-11 22:30N 34°03' W 119°15'4 7.3
2018-Jul-11 22:00N 33°59' W 119°16'4 7.5
2018-Jul-11 21:30N 33°55' W 119°16'4 7.4
2018-Jul-11 20:58N 33°52' W 119°17'3 7.4
2018-Jul-11 20:30N 33°48' W 119°18'4 7.5
2018-Jul-11 20:00N 33°45' W 119°19'4 7.5
2018-Jul-11 19:30N 33°41' W 119°19'4 7.5
2018-Jul-11 19:00N 33°37' W 119°20'4 7.6
2018-Jul-11 18:30N 33°33' W 119°21'4 7.7
2018-Jul-11 18:00N 33°30' W 119°21'4 7.7
2018-Jul-11 17:30N 33°26' W 119°21'4 7.6
2018-Jul-11 17:00N 33°22' W 119°22'4 7.6
2018-Jul-11 16:30N 33°18' W 119°22'4 7.4
2018-Jul-11 16:00N 33°14' W 119°23'3 6.1
2018-Jul-11 15:30N 33°12' W 119°25'1 0.3
2018-Jul-11 13:19N 33°12' W 119°26'3 6.4
2018-Jul-11 12:54N 33°12' W 119°23'2 5.8
2018-Jul-11 12:30N 33°13' W 119°20'3 5.5
2018-Jul-11 12:00N 33°15' W 119°19'3 6.4
2018-Jul-11 11:30N 33°18' W 119°19'3 6.4
2018-Jul-11 11:00N 33°22' W 119°19'3 6.3
2018-Jul-11 10:30N 33°25' W 119°18'3 6.0
2018-Jul-11 10:00N 33°28' W 119°18'3 5.9
2018-Jul-11 09:30N 33°31' W 119°18'3 5.6
2018-Jul-11 08:57N 33°34' W 119°17'2 5.5
2018-Jul-11 08:30N 33°36' W 119°17'3 5.6
2018-Jul-11 08:00N 33°39' W 119°17'3 5.8
2018-Jul-11 07:30N 33°42' W 119°17'3 5.7
2018-Jul-11 07:00N 33°45' W 119°17'3 5.6
2018-Jul-11 06:30N 33°48' W 119°17'3 5.8
2018-Jul-11 06:00N 33°50' W 119°17'3 6.1
2018-Jul-11 05:30N 33°53' W 119°16'3 6.1
2018-Jul-11 05:00N 33°56' W 119°15'3 6.3
2018-Jul-11 04:30N 33°59' W 119°15'4 7.1
2018-Jul-11 04:01N 34°03' W 119°15'4 7.0
2018-Jul-11 03:30N 34°06' W 119°14'3 5.4
2018-Jul-11 03:00N 34°09' W 119°13'0 0.6
2018-Jul-11 02:30N 34°09' W 119°13'0 0.0
2018-Jul-11 01:59N 34°09' W 119°13'0 0.0
2018-Jul-11 01:29N 34°09' W 119°13'0 0.0
2018-Jul-11 00:59N 34°09' W 119°13'0 0.0
2018-Jul-11 00:29N 34°09' W 119°13'0 0.0
2018-Jul-10 23:56N 34°09' W 119°13'0 0.0
2018-Jul-10 23:27N 34°09' W 119°13'0 0.0
2018-Jul-10 22:52N 34°09' W 119°13'0 0.0
2018-Jul-10 22:29N 34°09' W 119°13'0 0.0
2018-Jul-10 21:59N 34°09' W 119°13'0 0.0
2018-Jul-10 21:30N 34°09' W 119°13'0 0.0
2018-Jul-10 20:56N 34°09' W 119°13'0 0.0
2018-Jul-10 20:30N 34°09' W 119°13'0 0.0
2018-Jul-10 20:00N 34°09' W 119°13'0 0.0
2018-Jul-10 19:29N 34°09' W 119°13'0 0.0
2018-Jul-10 19:00N 34°09' W 119°13'0 0.0
2018-Jul-10 18:30N 34°09' W 119°13'0 0.0
2018-Jul-10 18:00N 34°09' W 119°13'0 0.0
2018-Jul-10 17:31N 34°09' W 119°13'0 0.0
2018-Jul-10 17:00N 34°09' W 119°13'0 0.0
2018-Jul-10 16:30N 34°09' W 119°13'0 0.0
2018-Jul-10 16:00N 34°09' W 119°13'0 0.0
2018-Jul-10 15:29N 34°09' W 119°13'0 0.0
2018-Jul-10 15:00N 34°09' W 119°13'0 0.4
2018-Jul-10 14:30N 34°09' W 119°12'2 3.4
2018-Jul-10 14:00N 34°08' W 119°14'2 4.2
2018-Jul-10 13:31N 34°06' W 119°15'1 2.1
2018-Jul-10 13:00N 34°05' W 119°16'3 5.2
2018-Jul-10 12:30N 34°04' W 119°13'3 5.2
2018-Jul-10 12:00N 34°03' W 119°11'3 5.9
2018-Jul-10 11:30N 34°01' W 119°08'3 6.5
2018-Jul-10 11:00N 33°60' W 119°04'3 6.6
2018-Jul-10 10:30N 33°58' W 119°01'3 6.5
2018-Jul-10 10:00N 33°57' W 118°57'3 6.4
2018-Jul-10 09:30N 33°55' W 118°54'3 6.3
2018-Jul-10 09:00N 33°54' W 118°50'3 6.5
2018-Jul-10 08:30N 33°52' W 118°47'3 6.6
2018-Jul-10 08:00N 33°51' W 118°43'3 6.5
2018-Jul-10 07:30N 33°49' W 118°40'3 6.7
2018-Jul-10 07:00N 33°48' W 118°36'3 6.6
2018-Jul-10 06:30N 33°46' W 118°33'3 6.7
2018-Jul-10 06:00N 33°45' W 118°29'3 6.5
2018-Jul-10 05:30N 33°43' W 118°26'3 6.7
2018-Jul-10 05:00N 33°42' W 118°22'4 7.2
2018-Jul-10 04:30N 33°41' W 118°18'3 6.7
2018-Jul-10 04:00N 33°43' W 118°15'3 5.4
2018-Jul-10 03:30N 33°45' W 118°13'1 2.8
2018-Jul-10 03:00N 33°46' W 118°13'0 0.2
2018-Jul-10 02:30N 33°46' W 118°13'0 0.0
2018-Jul-10 02:00N 33°46' W 118°13'  
2018-Jul-07 20:05N 33°46' W 118°13'0 0.0
2018-Jul-07 20:00N 33°46' W 118°13'2 4.0
2018-Jul-07 19:30N 33°46' W 118°15'1 1.4
2018-Jul-07 19:01N 33°47' W 118°15'1 1.3
2018-Jul-07 18:30N 33°46' W 118°15'2 3.9
2018-Jul-07 18:00N 33°46' W 118°13'  
2018-Jul-05 10:58N 33°46' W 118°13'0 0.7
2018-Jul-05 10:30N 33°46' W 118°13'2 3.7
2018-Jul-05 10:00N 33°44' W 118°13'1 1.7
2018-Jul-05 09:30N 33°44' W 118°12'2 3.4
2018-Jul-05 09:00N 33°43' W 118°11'3 6.4
2018-Jul-05 08:30N 33°40' W 118°08'3 6.1
2018-Jul-05 08:00N 33°38' W 118°06'3 6.1
2018-Jul-05 07:30N 33°37' W 118°02'3 5.8
2018-Jul-05 07:00N 33°35' W 117°59'3 5.9
2018-Jul-05 06:30N 33°34' W 117°56'3 5.9
2018-Jul-05 06:00N 33°33' W 117°53'2 4.4
2018-Jul-05 05:30N 33°33' W 117°50'1 1.9
2018-Jul-05 04:59N 33°33' W 117°49'0 0.0
2018-Jul-05 04:30N 33°33' W 117°49'0 0.1
2018-Jul-05 03:59N 33°33' W 117°49'0 0.0
2018-Jul-05 03:29N 33°33' W 117°49'0 0.1
2018-Jul-05 02:53N 33°33' W 117°49'0 0.1
2018-Jul-05 02:29N 33°33' W 117°49'0 0.2
2018-Jul-05 02:00N 33°33' W 117°49'0 0.3
2018-Jul-05 01:28N 33°33' W 117°49'1 1.9
2018-Jul-05 01:00N 33°33' W 117°50'0 0.4
2018-Jul-05 00:30N 33°33' W 117°50'2 3.7
2018-Jul-05 00:00N 33°33' W 117°52'2 4.7
2018-Jul-04 23:30N 33°32' W 117°49'0 0.5
2018-Jul-04 23:00N 33°32' W 117°49'3 5.1
2018-Jul-04 22:30N 33°32' W 117°52'3 5.1
2018-Jul-04 22:00N 33°33' W 117°55'3 5.1
2018-Jul-04 21:30N 33°35' W 117°57'3 5.9
2018-Jul-04 20:59N 33°36' W 118°00'3 6.3
2018-Jul-04 20:30N 33°38' W 118°04'3 6.7
2018-Jul-04 20:00N 33°39' W 118°07'3 6.4
2018-Jul-04 19:30N 33°42' W 118°10'3 5.5
2018-Jul-04 19:00N 33°44' W 118°12'1 2.1
2018-Jul-04 18:30N 33°44' W 118°13'1 1.3
2018-Jul-04 18:00N 33°45' W 118°13'1 2.6
2018-Jul-04 17:30N 33°46' W 118°13'  
Track history (hours):
 
Tides and Currents Weather Stations Pressure Air Temp Water Temp Dewpoint Dewpoint Depression Visibility Wind Speed Wind Dir Waves Ship Positions

H.m. Hidalgo

Owner: PACIFIC TUGBOAT SERVICE INC, SAN DIEGO, CA. More information available from US FCC via Universal Licensing System and Coast Guard Vessel Documentation Center.

Last reported at 2018-Jul-13 01:27 UTC. Time now 2018-Jul-15 23:01 UTC.
Position N 33°46' W 118°13'.

Length 25 m; draft 4 m.

Type: Towing. MMSI: 366892180.

Date/timePositionNaut miles runAvg speedWind from/ knotsBaromVisibWave heightAir tempDewpointWater temp
2018-Jul-13 01:27N 33°46' W 118°13'0 0.0
2018-Jul-13 01:00N 33°46' W 118°13'1 1.4
2018-Jul-13 00:30N 33°46' W 118°13'2 3.8
2018-Jul-13 00:00N 33°44' W 118°13'3 6.3
2018-Jul-12 23:30N 33°41' W 118°15'3 6.2
2018-Jul-12 23:00N 33°40' W 118°19'4 7.4
2018-Jul-12 22:30N 33°42' W 118°23'4 6.9
2018-Jul-12 22:00N 33°44' W 118°26'3 6.7
2018-Jul-12 21:30N 33°45' W 118°30'3 6.8
2018-Jul-12 21:00N 33°47' W 118°34'4 7.4
2018-Jul-12 20:29N 33°49' W 118°38'4 7.4
2018-Jul-12 20:00N 33°50' W 118°41'3 7.1
2018-Jul-12 19:31N 33°52' W 118°45'4 7.2
2018-Jul-12 19:00N 33°54' W 118°49'3 6.9
2018-Jul-12 18:30N 33°56' W 118°52'3 6.8
2018-Jul-12 18:00N 33°58' W 118°56'3 6.7
2018-Jul-12 17:29N 33°59' W 118°59'3 6.7
2018-Jul-12 16:59N 34°01' W 119°03'3 6.7
2018-Jul-12 16:30N 34°02' W 119°06'3 6.5
2018-Jul-12 16:00N 34°04' W 119°10'3 6.4
2018-Jul-12 15:30N 34°05' W 119°13'3 6.1
2018-Jul-12 15:00N 34°08' W 119°13'1 1.7
2018-Jul-12 14:30N 34°09' W 119°13'0 0.0
2018-Jul-12 14:00N 34°09' W 119°13'0 0.0
2018-Jul-12 13:30N 34°09' W 119°13'0 0.0
2018-Jul-12 13:00N 34°09' W 119°13'0 0.0
2018-Jul-12 12:29N 34°09' W 119°13'0 0.0
2018-Jul-12 12:00N 34°09' W 119°13'0 0.0
2018-Jul-12 11:28N 34°09' W 119°13'0 0.0
2018-Jul-12 11:00N 34°09' W 119°13'0 0.0
2018-Jul-12 10:29N 34°09' W 119°13'0 0.0
2018-Jul-12 10:00N 34°09' W 119°13'0 0.0
2018-Jul-12 09:29N 34°09' W 119°13'0 0.0
2018-Jul-12 09:00N 34°09' W 119°13'0 0.0
2018-Jul-12 08:30N 34°09' W 119°13'0 0.0
2018-Jul-12 08:00N 34°09' W 119°13'0 0.0
2018-Jul-12 07:30N 34°09' W 119°13'0 0.0
2018-Jul-12 06:59N 34°09' W 119°13'0 0.0
2018-Jul-12 06:30N 34°09' W 119°13'0 0.0
2018-Jul-12 06:00N 34°09' W 119°13'0 0.0
2018-Jul-12 05:30N 34°09' W 119°13'0 0.0
2018-Jul-12 05:00N 34°09' W 119°13'0 0.0
2018-Jul-12 04:30N 34°09' W 119°13'0 0.0
2018-Jul-12 04:00N 34°09' W 119°13'0 0.0
2018-Jul-12 03:29N 34°09' W 119°13'0 0.0
2018-Jul-12 03:00N 34°09' W 119°13'0 0.0
2018-Jul-12 02:30N 34°09' W 119°13'0 0.0
2018-Jul-12 02:00N 34°09' W 119°13'0 0.0
2018-Jul-12 01:27N 34°09' W 119°13'0 0.0
2018-Jul-12 01:00N 34°09' W 119°13'0 0.0
2018-Jul-12 00:30N 34°09' W 119°13'0 0.0
2018-Jul-11 23:57N 34°09' W 119°13'0 1.0
2018-Jul-11 23:29N 34°09' W 119°13'3 5.7
2018-Jul-11 23:00N 34°06' W 119°14'3 7.0
2018-Jul-11 22:30N 34°03' W 119°15'4 7.3
2018-Jul-11 22:00N 33°59' W 119°16'4 7.5
2018-Jul-11 21:30N 33°55' W 119°16'4 7.4
2018-Jul-11 20:58N 33°52' W 119°17'3 7.4
2018-Jul-11 20:30N 33°48' W 119°18'4 7.5
2018-Jul-11 20:00N 33°45' W 119°19'4 7.5
2018-Jul-11 19:30N 33°41' W 119°19'4 7.5
2018-Jul-11 19:00N 33°37' W 119°20'4 7.6
2018-Jul-11 18:30N 33°33' W 119°21'4 7.7
2018-Jul-11 18:00N 33°30' W 119°21'4 7.7
2018-Jul-11 17:30N 33°26' W 119°21'4 7.6
2018-Jul-11 17:00N 33°22' W 119°22'4 7.6
2018-Jul-11 16:30N 33°18' W 119°22'4 7.4
2018-Jul-11 16:00N 33°14' W 119°23'3 6.1
2018-Jul-11 15:30N 33°12' W 119°25'1 0.3
2018-Jul-11 13:19N 33°12' W 119°26'3 6.4
2018-Jul-11 12:54N 33°12' W 119°23'2 5.8
2018-Jul-11 12:30N 33°13' W 119°20'3 5.5
2018-Jul-11 12:00N 33°15' W 119°19'3 6.4
2018-Jul-11 11:30N 33°18' W 119°19'3 6.4
2018-Jul-11 11:00N 33°22' W 119°19'3 6.3
2018-Jul-11 10:30N 33°25' W 119°18'3 6.0
2018-Jul-11 10:00N 33°28' W 119°18'3 5.9
2018-Jul-11 09:30N 33°31' W 119°18'3 5.6
2018-Jul-11 08:57N 33°34' W 119°17'2 5.5
2018-Jul-11 08:30N 33°36' W 119°17'3 5.6
2018-Jul-11 08:00N 33°39' W 119°17'3 5.8
2018-Jul-11 07:30N 33°42' W 119°17'3 5.7
2018-Jul-11 07:00N 33°45' W 119°17'3 5.6
2018-Jul-11 06:30N 33°48' W 119°17'3 5.8
2018-Jul-11 06:00N 33°50' W 119°17'3 6.1
2018-Jul-11 05:30N 33°53' W 119°16'3 6.1
2018-Jul-11 05:00N 33°56' W 119°15'3 6.3
2018-Jul-11 04:30N 33°59' W 119°15'4 7.1
2018-Jul-11 04:01N 34°03' W 119°15'4 7.0
2018-Jul-11 03:30N 34°06' W 119°14'3 5.4
2018-Jul-11 03:00N 34°09' W 119°13'0 0.6
2018-Jul-11 02:30N 34°09' W 119°13'0 0.0
2018-Jul-11 01:59N 34°09' W 119°13'0 0.0
2018-Jul-11 01:29N 34°09' W 119°13'0 0.0
2018-Jul-11 00:59N 34°09' W 119°13'0 0.0
2018-Jul-11 00:29N 34°09' W 119°13'0 0.0
2018-Jul-10 23:56N 34°09' W 119°13'0 0.0
2018-Jul-10 23:27N 34°09' W 119°13'0 0.0
2018-Jul-10 22:52N 34°09' W 119°13'0 0.0
2018-Jul-10 22:29N 34°09' W 119°13'0 0.0
2018-Jul-10 21:59N 34°09' W 119°13'0 0.0
2018-Jul-10 21:30N 34°09' W 119°13'0 0.0
2018-Jul-10 20:56N 34°09' W 119°13'0 0.0
2018-Jul-10 20:30N 34°09' W 119°13'0 0.0
2018-Jul-10 20:00N 34°09' W 119°13'0 0.0
2018-Jul-10 19:29N 34°09' W 119°13'0 0.0
2018-Jul-10 19:00N 34°09' W 119°13'0 0.0
2018-Jul-10 18:30N 34°09' W 119°13'0 0.0
2018-Jul-10 18:00N 34°09' W 119°13'0 0.0
2018-Jul-10 17:31N 34°09' W 119°13'0 0.0
2018-Jul-10 17:00N 34°09' W 119°13'0 0.0
2018-Jul-10 16:30N 34°09' W 119°13'0 0.0
2018-Jul-10 16:00N 34°09' W 119°13'0 0.0
2018-Jul-10 15:29N 34°09' W 119°13'0 0.0
2018-Jul-10 15:00N 34°09' W 119°13'0 0.4
2018-Jul-10 14:30N 34°09' W 119°12'2 3.4
2018-Jul-10 14:00N 34°08' W 119°14'2 4.2
2018-Jul-10 13:31N 34°06' W 119°15'1 2.1
2018-Jul-10 13:00N 34°05' W 119°16'3 5.2
2018-Jul-10 12:30N 34°04' W 119°13'3 5.2
2018-Jul-10 12:00N 34°03' W 119°11'3 5.9
2018-Jul-10 11:30N 34°01' W 119°08'3 6.5
2018-Jul-10 11:00N 33°60' W 119°04'3 6.6
2018-Jul-10 10:30N 33°58' W 119°01'3 6.5
2018-Jul-10 10:00N 33°57' W 118°57'3 6.4
2018-Jul-10 09:30N 33°55' W 118°54'3 6.3
2018-Jul-10 09:00N 33°54' W 118°50'3 6.5
2018-Jul-10 08:30N 33°52' W 118°47'3 6.6
2018-Jul-10 08:00N 33°51' W 118°43'3 6.5
2018-Jul-10 07:30N 33°49' W 118°40'3 6.7
2018-Jul-10 07:00N 33°48' W 118°36'3 6.6
2018-Jul-10 06:30N 33°46' W 118°33'3 6.7
2018-Jul-10 06:00N 33°45' W 118°29'3 6.5
2018-Jul-10 05:30N 33°43' W 118°26'3 6.7
2018-Jul-10 05:00N 33°42' W 118°22'4 7.2
2018-Jul-10 04:30N 33°41' W 118°18'3 6.7
2018-Jul-10 04:00N 33°43' W 118°15'3 5.4
2018-Jul-10 03:30N 33°45' W 118°13'1 2.8
2018-Jul-10 03:00N 33°46' W 118°13'0 0.2
2018-Jul-10 02:30N 33°46' W 118°13'0 0.0
2018-Jul-10 02:00N 33°46' W 118°13'  
2018-Jul-07 20:05N 33°46' W 118°13'0 0.0
2018-Jul-07 20:00N 33°46' W 118°13'2 4.0
2018-Jul-07 19:30N 33°46' W 118°15'1 1.4
2018-Jul-07 19:01N 33°47' W 118°15'1 1.3
2018-Jul-07 18:30N 33°46' W 118°15'2 3.9
2018-Jul-07 18:00N 33°46' W 118°13'  
2018-Jul-05 10:58N 33°46' W 118°13'0 0.7
2018-Jul-05 10:30N 33°46' W 118°13'2 3.7
2018-Jul-05 10:00N 33°44' W 118°13'1 1.7
2018-Jul-05 09:30N 33°44' W 118°12'2 3.4
2018-Jul-05 09:00N 33°43' W 118°11'3 6.4
2018-Jul-05 08:30N 33°40' W 118°08'3 6.1
2018-Jul-05 08:00N 33°38' W 118°06'3 6.1
2018-Jul-05 07:30N 33°37' W 118°02'3 5.8
2018-Jul-05 07:00N 33°35' W 117°59'3 5.9
2018-Jul-05 06:30N 33°34' W 117°56'3 5.9
2018-Jul-05 06:00N 33°33' W 117°53'2 4.4
2018-Jul-05 05:30N 33°33' W 117°50'1 1.9
2018-Jul-05 04:59N 33°33' W 117°49'0 0.0
2018-Jul-05 04:30N 33°33' W 117°49'0 0.1
2018-Jul-05 03:59N 33°33' W 117°49'0 0.0
2018-Jul-05 03:29N 33°33' W 117°49'0 0.1
2018-Jul-05 02:53N 33°33' W 117°49'0 0.1
2018-Jul-05 02:29N 33°33' W 117°49'0 0.2
2018-Jul-05 02:00N 33°33' W 117°49'0 0.3
2018-Jul-05 01:28N 33°33' W 117°49'1 1.9
2018-Jul-05 01:00N 33°33' W 117°50'0 0.4
2018-Jul-05 00:30N 33°33' W 117°50'2 3.7
2018-Jul-05 00:00N 33°33' W 117°52'2 4.7
2018-Jul-04 23:30N 33°32' W 117°49'0 0.5
2018-Jul-04 23:00N 33°32' W 117°49'3 5.1
2018-Jul-04 22:30N 33°32' W 117°52'3 5.1
2018-Jul-04 22:00N 33°33' W 117°55'3 5.1
2018-Jul-04 21:30N 33°35' W 117°57'3 5.9
2018-Jul-04 20:59N 33°36' W 118°00'3 6.3
2018-Jul-04 20:30N 33°38' W 118°04'3 6.7
2018-Jul-04 20:00N 33°39' W 118°07'3 6.4
2018-Jul-04 19:30N 33°42' W 118°10'3 5.5
2018-Jul-04 19:00N 33°44' W 118°12'1 2.1
2018-Jul-04 18:30N 33°44' W 118°13'1 1.3
2018-Jul-04 18:00N 33°45' W 118°13'1 2.6
2018-Jul-04 17:30N 33°46' W 118°13'  

Dump ship's entire track history